sensor_id;sensor_type;location;lat;lon;timestamp;pressure;altitude;pressure_sealevel;temperature;humidity
68807;BME280;55800;54.272;18.558;2024-03-25T00:00:04;99307.69;;;4.16;75.60
68807;BME280;55800;54.272;18.558;2024-03-25T00:02:58;99302.38;;;4.16;75.53
68807;BME280;55800;54.272;18.558;2024-03-25T00:05:26;99307.69;;;4.16;75.64
68807;BME280;55800;54.272;18.558;2024-03-25T00:07:54;99302.38;;;4.16;75.54
68807;BME280;55800;54.272;18.558;2024-03-25T00:10:22;99302.38;;;4.16;75.53
68807;BME280;55800;54.272;18.558;2024-03-25T00:12:50;99302.38;;;4.16;75.62
68807;BME280;55800;54.272;18.558;2024-03-25T00:15:22;99299.72;;;4.18;75.48
68807;BME280;55800;54.272;18.558;2024-03-25T00:17:50;99304.13;;;4.17;75.59
68807;BME280;55800;54.272;18.558;2024-03-25T00:20:18;99304.13;;;4.17;75.50
68807;BME280;55800;54.272;18.558;2024-03-25T00:22:45;99299.75;;;4.16;75.52
68807;BME280;55800;54.272;18.558;2024-03-25T00:25:14;99300.53;;;4.18;75.55
68807;BME280;55800;54.272;18.558;2024-03-25T00:27:43;99299.72;;;4.18;75.44
68807;BME280;55800;54.272;18.558;2024-03-25T00:30:13;99304.13;;;4.17;75.52
68807;BME280;55800;54.272;18.558;2024-03-25T00:32:40;99304.13;;;4.17;75.39
68807;BME280;55800;54.272;18.558;2024-03-25T00:35:09;99304.16;;;4.16;75.47
68807;BME280;55800;54.272;18.558;2024-03-25T00:37:36;99294.44;;;4.16;75.43
68807;BME280;55800;54.272;18.558;2024-03-25T00:40:05;99295.38;;;4.15;75.40
68807;BME280;55800;54.272;18.558;2024-03-25T00:42:34;99298.94;;;4.14;75.22
68807;BME280;55800;54.272;18.558;2024-03-25T00:45:02;99296.28;;;4.14;75.29
68807;BME280;55800;54.272;18.558;2024-03-25T00:47:31;99296.34;;;4.13;75.44
68807;BME280;55800;54.272;18.558;2024-03-25T00:49:59;99295.50;;;4.12;75.31
68807;BME280;55800;54.272;18.558;2024-03-25T00:52:26;99300.78;;;4.12;75.26
68807;BME280;55800;54.272;18.558;2024-03-25T00:54:54;99298.19;;;4.11;75.48
68807;BME280;55800;54.272;18.558;2024-03-25T00:57:22;99299.06;;;4.11;75.42
68807;BME280;55800;54.272;18.558;2024-03-25T00:59:50;99292.91;;;4.11;75.44
68807;BME280;55800;54.272;18.558;2024-03-25T01:02:17;99291.16;;;4.10;75.33
68807;BME280;55800;54.272;18.558;2024-03-25T01:04:47;99297.31;;;4.10;75.40
68807;BME280;55800;54.272;18.558;2024-03-25T01:07:14;99292.03;;;4.10;75.58
68807;BME280;55800;54.272;18.558;2024-03-25T01:09:42;99290.34;;;4.09;75.54
68807;BME280;55800;54.272;18.558;2024-03-25T01:12:10;99296.47;;;4.10;75.45
68807;BME280;55800;54.272;18.558;2024-03-25T01:14:38;99290.34;;;4.09;75.63
68807;BME280;55800;54.272;18.558;2024-03-25T01:17:05;99285.03;;;4.09;75.65
68807;BME280;55800;54.272;18.558;2024-03-25T01:19:33;99287.69;;;4.09;75.47
68807;BME280;55800;54.272;18.558;2024-03-25T01:22:01;99283.22;;;4.10;75.62
68807;BME280;55800;54.272;18.558;2024-03-25T01:24:30;99288.59;;;4.08;75.49
68807;BME280;55800;54.272;18.558;2024-03-25T01:26:57;99285.94;;;4.08;75.45
68807;BME280;55800;54.272;18.558;2024-03-25T01:29:25;99285.94;;;4.08;75.49
68807;BME280;55800;54.272;18.558;2024-03-25T01:31:52;99284.25;;;4.07;75.25
68807;BME280;55800;54.272;18.558;2024-03-25T01:34:21;99286.00;;;4.07;75.56
68807;BME280;55800;54.272;18.558;2024-03-25T01:36:48;99282.56;;;4.05;75.63
68807;BME280;55800;54.272;18.558;2024-03-25T01:39:17;99284.28;;;4.06;75.66
68807;BME280;55800;54.272;18.558;2024-03-25T01:41:45;99284.34;;;4.04;75.55
68807;BME280;55800;54.272;18.558;2024-03-25T01:44:13;99293.13;;;4.05;75.51
68807;BME280;55800;54.272;18.558;2024-03-25T01:46:40;99286.97;;;4.04;75.82
68807;BME280;55800;54.272;18.558;2024-03-25T01:49:10;99291.41;;;4.04;75.43
68807;BME280;55800;54.272;18.558;2024-03-25T01:51:38;99284.41;;;4.03;75.57
68807;BME280;55800;54.272;18.558;2024-03-25T01:54:07;99289.69;;;4.03;75.46
68807;BME280;55800;54.272;18.558;2024-03-25T01:56:38;99283.53;;;4.02;75.70
68807;BME280;55800;54.272;18.558;2024-03-25T01:59:08;99289.72;;;4.01;75.55
68807;BME280;55800;54.272;18.558;2024-03-25T02:01:35;99293.25;;;4.02;75.54
68807;BME280;55800;54.272;18.558;2024-03-25T02:04:04;99287.06;;;4.01;75.62
68807;BME280;55800;54.272;18.558;2024-03-25T02:06:32;99293.31;;;4.00;75.60
68807;BME280;55800;54.272;18.558;2024-03-25T02:09:02;99289.72;;;4.01;75.77
68807;BME280;55800;54.272;18.558;2024-03-25T02:11:31;99288.88;;;4.01;75.66
68807;BME280;55800;54.272;18.558;2024-03-25T02:14:01;99288.00;;;4.00;75.78
68807;BME280;55800;54.272;18.558;2024-03-25T02:16:28;99290.66;;;4.00;75.89
68807;BME280;55800;54.272;18.558;2024-03-25T02:18:57;99293.25;;;4.02;76.02
68807;BME280;55800;54.272;18.558;2024-03-25T02:21:24;99289.72;;;4.01;75.97
68807;BME280;55800;54.272;18.558;2024-03-25T02:23:53;99288.00;;;4.00;75.88
68807;BME280;55800;54.272;18.558;2024-03-25T02:26:23;99291.53;;;4.01;75.88
68807;BME280;55800;54.272;18.558;2024-03-25T02:28:51;99289.78;;;4.00;76.04
68807;BME280;55800;54.272;18.558;2024-03-25T02:31:18;99291.63;;;3.97;76.06
68807;BME280;55800;54.272;18.558;2024-03-25T02:33:47;99287.22;;;3.98;76.14
68807;BME280;55800;54.272;18.558;2024-03-25T02:36:14;99294.19;;;3.99;76.21
68807;BME280;55800;54.272;18.558;2024-03-25T02:38:42;99294.19;;;3.99;76.09
68807;BME280;55800;54.272;18.558;2024-03-25T02:41:10;99303.88;;;4.00;76.14
68807;BME280;55800;54.272;18.558;2024-03-25T02:43:39;99292.38;;;4.01;76.26
68807;BME280;55800;54.272;18.558;2024-03-25T02:46:07;99298.53;;;4.02;76.17
68807;BME280;55800;54.272;18.558;2024-03-25T02:48:35;99296.75;;;4.02;76.27
68807;BME280;55800;54.272;18.558;2024-03-25T02:51:02;99292.34;;;4.03;76.29
68807;BME280;55800;54.272;18.558;2024-03-25T02:53:30;99298.47;;;4.03;76.33
68807;BME280;55800;54.272;18.558;2024-03-25T02:55:58;99295.81;;;4.03;76.29
68807;BME280;55800;54.272;18.558;2024-03-25T02:58:26;99298.44;;;4.05;76.19
68807;BME280;55800;54.272;18.558;2024-03-25T03:00:54;99293.13;;;4.05;76.35
68807;BME280;55800;54.272;18.558;2024-03-25T03:03:23;99304.56;;;4.05;76.35
68807;BME280;55800;54.272;18.558;2024-03-25T03:05:50;99304.56;;;4.05;76.29
68807;BME280;55800;54.272;18.558;2024-03-25T03:08:18;99298.44;;;4.05;76.41
68807;BME280;55800;54.272;18.558;2024-03-25T03:10:45;99307.19;;;4.05;76.39
68807;BME280;55800;54.272;18.558;2024-03-25T03:13:13;99308.94;;;4.06;76.38
68807;BME280;55800;54.272;18.558;2024-03-25T03:15:44;99314.22;;;4.06;76.57
68807;BME280;55800;54.272;18.558;2024-03-25T03:18:14;99305.38;;;4.07;76.46
68807;BME280;55800;54.272;18.558;2024-03-25T03:20:41;99299.16;;;4.08;76.55
68807;BME280;55800;54.272;18.558;2024-03-25T03:23:09;99304.47;;;4.08;76.64
68807;BME280;55800;54.272;18.558;2024-03-25T03:25:36;99304.38;;;4.10;76.70
68807;BME280;55800;54.272;18.558;2024-03-25T03:28:05;99307.91;;;4.10;76.57
68807;BME280;55800;54.272;18.558;2024-03-25T03:33:49;99312.28;;;4.11;76.62
68807;BME280;55800;54.272;18.558;2024-03-25T03:36:17;99304.34;;;4.11;76.71
68807;BME280;55800;54.272;18.558;2024-03-25T03:38:45;99313.09;;;4.13;76.67
68807;BME280;55800;54.272;18.558;2024-03-25T03:41:12;99307.81;;;4.13;76.72
68807;BME280;55800;54.272;18.558;2024-03-25T03:43:41;99308.66;;;4.14;76.71
68807;BME280;55800;54.272;18.558;2024-03-25T03:46:08;99312.16;;;4.14;76.71
68807;BME280;55800;54.272;18.558;2024-03-25T03:48:36;99321.84;;;4.15;76.72
68807;BME280;55800;54.272;18.558;2024-03-25T03:51:06;99312.97;;;4.16;76.71
68807;BME280;55800;54.272;18.558;2024-03-25T03:53:35;99318.25;;;4.16;76.66
68807;BME280;55800;54.272;18.558;2024-03-25T03:56:04;99310.28;;;4.18;76.80
68807;BME280;55800;54.272;18.558;2024-03-25T03:58:33;99316.41;;;4.18;76.73
68807;BME280;55800;54.272;18.558;2024-03-25T04:01:00;99306.78;;;4.17;76.76
68807;BME280;55800;54.272;18.558;2024-03-25T04:03:31;99319.94;;;4.19;76.76
68807;BME280;55800;54.272;18.558;2024-03-25T04:05:58;99323.44;;;4.19;76.80
68807;BME280;55800;54.272;18.558;2024-03-25T04:08:28;99326.91;;;4.21;76.84
68807;BME280;55800;54.272;18.558;2024-03-25T04:10:55;99325.16;;;4.20;76.85
68807;BME280;55800;54.272;18.558;2024-03-25T04:13:23;99328.59;;;4.22;77.10
68807;BME280;55800;54.272;18.558;2024-03-25T04:15:50;99333.00;;;4.23;77.02
68807;BME280;55800;54.272;18.558;2024-03-25T04:18:19;99340.94;;;4.23;77.13
68807;BME280;55800;54.272;18.558;2024-03-25T04:20:46;99333.78;;;4.25;77.24
68807;BME280;55800;54.272;18.558;2024-03-25T04:23:15;99340.81;;;4.26;77.23
68807;BME280;55800;54.272;18.558;2024-03-25T04:25:43;99343.41;;;4.28;77.41
68807;BME280;55800;54.272;18.558;2024-03-25T04:28:12;99339.00;;;4.28;77.46
68807;BME280;55800;54.272;18.558;2024-03-25T04:30:39;99348.56;;;4.31;77.39
68807;BME280;55800;54.272;18.558;2024-03-25T04:33:07;99344.16;;;4.31;77.48
68807;BME280;55800;54.272;18.558;2024-03-25T04:35:35;99348.47;;;4.34;77.42
68807;BME280;55800;54.272;18.558;2024-03-25T04:38:03;99351.06;;;4.35;77.39
68807;BME280;55800;54.272;18.558;2024-03-25T04:40:30;99358.09;;;4.36;77.43
68807;BME280;55800;54.272;18.558;2024-03-25T04:42:59;99359.78;;;4.37;77.44
68807;BME280;55800;54.272;18.558;2024-03-25T04:45:26;99349.22;;;4.37;77.33
68807;BME280;55800;54.272;18.558;2024-03-25T04:47:53;99362.41;;;4.39;77.31
68807;BME280;55800;54.272;18.558;2024-03-25T04:50:20;99368.53;;;4.39;77.40
68807;BME280;55800;54.272;18.558;2024-03-25T04:52:48;99364.97;;;4.40;77.32
68807;BME280;55800;54.272;18.558;2024-03-25T04:55:15;99357.94;;;4.39;77.37
68807;BME280;55800;54.272;18.558;2024-03-25T04:57:42;99371.16;;;4.41;77.41
68807;BME280;55800;54.272;18.558;2024-03-25T05:00:12;99369.34;;;4.41;77.36
68807;BME280;55800;54.272;18.558;2024-03-25T05:02:40;99367.56;;;4.42;77.64
68807;BME280;55800;54.272;18.558;2024-03-25T05:05:07;99375.44;;;4.43;77.50
68807;BME280;55800;54.272;18.558;2024-03-25T05:07:34;99372.78;;;4.43;77.27
68807;BME280;55800;54.272;18.558;2024-03-25T05:10:01;99376.31;;;4.44;77.30
68807;BME280;55800;54.272;18.558;2024-03-25T05:12:29;99383.38;;;4.43;77.45
68807;BME280;55800;54.272;18.558;2024-03-25T05:14:56;99389.53;;;4.44;77.44
68807;BME280;55800;54.272;18.558;2024-03-25T05:17:25;99386.88;;;4.44;77.57
68807;BME280;55800;54.272;18.558;2024-03-25T05:19:52;99392.13;;;4.45;77.60
68807;BME280;55800;54.272;18.558;2024-03-25T05:22:19;99387.66;;;4.47;77.42
68807;BME280;55800;54.272;18.558;2024-03-25T05:24:46;99393.78;;;4.48;77.40
68807;BME280;55800;54.272;18.558;2024-03-25T05:27:16;99393.78;;;4.48;77.46
68807;BME280;55800;54.272;18.558;2024-03-25T05:29:43;99398.19;;;4.49;77.63
68807;BME280;55800;54.272;18.558;2024-03-25T05:32:10;99402.53;;;4.50;77.57
68807;BME280;55800;54.272;18.558;2024-03-25T05:34:38;99403.31;;;4.53;77.66
68807;BME280;55800;54.272;18.558;2024-03-25T05:37:06;99409.44;;;4.54;77.66
68807;BME280;55800;54.272;18.558;2024-03-25T05:39:33;99406.75;;;4.55;77.73
68807;BME280;55800;54.272;18.558;2024-03-25T05:42:00;99411.09;;;4.58;77.97
68807;BME280;55800;54.272;18.558;2024-03-25T05:44:28;99411.03;;;4.59;77.84
68807;BME280;55800;54.272;18.558;2024-03-25T05:46:55;99406.53;;;4.61;77.96
68807;BME280;55800;54.272;18.558;2024-03-25T05:49:22;99413.50;;;4.64;77.87
68807;BME280;55800;54.272;18.558;2024-03-25T05:51:51;99409.88;;;4.66;78.07
68807;BME280;55800;54.272;18.558;2024-03-25T05:54:18;99412.41;;;4.69;78.04
68807;BME280;55800;54.272;18.558;2024-03-25T05:56:46;99416.66;;;4.73;78.18
68807;BME280;55800;54.272;18.558;2024-03-25T05:59:13;99421.84;;;4.77;78.22
68807;BME280;55800;54.272;18.558;2024-03-25T06:01:41;99426.19;;;4.78;78.23
68807;BME280;55800;54.272;18.558;2024-03-25T06:04:08;99429.56;;;4.83;78.28
68807;BME280;55800;54.272;18.558;2024-03-25T06:06:36;99433.81;;;4.87;78.53
68807;BME280;55800;54.272;18.558;2024-03-25T06:09:04;99430.13;;;4.91;78.52
68807;BME280;55800;54.272;18.558;2024-03-25T06:11:31;99438.78;;;4.96;78.47
68807;BME280;55800;54.272;18.558;2024-03-25T06:14:00;99448.25;;;5.01;78.54
68807;BME280;55800;54.272;18.558;2024-03-25T06:16:27;99445.44;;;5.06;78.51
68807;BME280;55800;54.272;18.558;2024-03-25T06:18:54;99452.25;;;5.13;78.58
68807;BME280;55800;54.272;18.558;2024-03-25T06:21:22;99453.84;;;5.17;78.56
68807;BME280;55800;54.272;18.558;2024-03-25T06:23:49;99458.91;;;5.23;78.61
68807;BME280;55800;54.272;18.558;2024-03-25T06:26:17;99459.59;;;5.28;78.85
68807;BME280;55800;54.272;18.558;2024-03-25T06:28:44;99465.50;;;5.34;78.83
68807;BME280;55800;54.272;18.558;2024-03-25T06:31:12;99461.75;;;5.40;79.15
68807;BME280;55800;54.272;18.558;2024-03-25T06:33:57;99466.88;;;5.44;79.11
68807;BME280;55800;54.272;18.558;2024-03-25T06:36:44;99463.03;;;5.51;79.03
68807;BME280;55800;54.272;18.558;2024-03-25T06:39:11;99465.47;;;5.58;79.60
68807;BME280;55800;54.272;18.558;2024-03-25T06:41:40;99460.84;;;5.63;79.21
68807;BME280;55800;54.272;18.558;2024-03-25T06:44:07;99473.84;;;5.69;79.30
68807;BME280;55800;54.272;18.558;2024-03-25T06:46:34;99480.63;;;5.76;79.47
68807;BME280;55800;54.272;18.558;2024-03-25T06:49:01;99477.66;;;5.83;79.64
68807;BME280;55800;54.272;18.558;2024-03-25T06:51:29;99473.06;;;5.88;80.21
68807;BME280;55800;54.272;18.558;2024-03-25T06:53:56;99479.88;;;5.95;79.98
68807;BME280;55800;54.272;18.558;2024-03-25T06:56:24;99483.97;;;6.02;79.92
68807;BME280;55800;54.272;18.558;2024-03-25T06:58:54;99482.88;;;6.08;79.79
68807;BME280;55800;54.272;18.558;2024-03-25T07:01:21;99495.81;;;6.15;79.96
68807;BME280;55800;54.272;18.558;2024-03-25T07:03:48;99496.47;;;6.20;79.87
68807;BME280;55800;54.272;18.558;2024-03-25T07:06:15;99511.22;;;6.27;80.07
68807;BME280;55800;54.272;18.558;2024-03-25T07:08:42;99503.91;;;6.32;79.84
68807;BME280;55800;54.272;18.558;2024-03-25T07:11:10;99508.97;;;6.39;80.27
68807;BME280;55800;54.272;18.558;2024-03-25T07:13:37;99508.91;;;6.40;81.50
68807;BME280;55800;54.272;18.558;2024-03-25T07:16:06;99505.91;;;6.48;80.42
68807;BME280;55800;54.272;18.558;2024-03-25T07:18:33;99510.16;;;6.52;80.45
68807;BME280;55800;54.272;18.558;2024-03-25T07:21:00;99517.88;;;6.58;80.25
68807;BME280;55800;54.272;18.558;2024-03-25T07:23:28;99507.81;;;6.66;80.48
68807;BME280;55800;54.272;18.558;2024-03-25T07:25:55;99513.69;;;6.72;80.58
68807;BME280;55800;54.272;18.558;2024-03-25T07:28:22;99514.28;;;6.79;80.47
68807;BME280;55800;54.272;18.558;2024-03-25T07:30:50;99518.41;;;6.86;80.55
68807;BME280;55800;54.272;18.558;2024-03-25T07:33:19;99526.97;;;6.92;80.66
68807;BME280;55800;54.272;18.558;2024-03-25T07:35:46;99531.00;;;7.01;80.78
68807;BME280;55800;54.272;18.558;2024-03-25T07:38:13;99529.81;;;7.08;80.78
68807;BME280;55800;54.272;18.558;2024-03-25T07:40:40;99535.72;;;7.15;80.87
68807;BME280;55800;54.272;18.558;2024-03-25T07:43:07;99530.03;;;7.22;80.86
68807;BME280;55800;54.272;18.558;2024-03-25T07:45:35;99532.31;;;7.30;80.85
68807;BME280;55800;54.272;18.558;2024-03-25T07:48:02;99532.06;;;7.36;80.95
68807;BME280;55800;54.272;18.558;2024-03-25T07:50:31;99529.06;;;7.43;81.08
68807;BME280;55800;54.272;18.558;2024-03-25T07:52:58;99530.34;;;7.53;80.87
68807;BME280;55800;54.272;18.558;2024-03-25T07:55:25;99532.66;;;7.61;81.06
68807;BME280;55800;54.272;18.558;2024-03-25T07:57:52;99532.19;;;7.70;81.21
68807;BME280;55800;54.272;18.558;2024-03-25T08:00:20;99527.53;;;7.75;81.27
68807;BME280;55800;54.272;18.558;2024-03-25T08:02:47;99538.66;;;7.83;81.21
68807;BME280;55800;54.272;18.558;2024-03-25T08:05:14;99539.25;;;7.89;81.24
68807;BME280;55800;54.272;18.558;2024-03-25T08:07:43;99538.09;;;7.95;81.35
68807;BME280;55800;54.272;18.558;2024-03-25T08:10:11;99545.69;;;8.03;81.24
68807;BME280;55800;54.272;18.558;2024-03-25T08:12:38;99549.81;;;8.10;81.34
68807;BME280;55800;54.272;18.558;2024-03-25T08:15:06;99548.47;;;8.18;81.35
68807;BME280;55800;54.272;18.558;2024-03-25T08:17:33;99551.56;;;8.28;81.49
68807;BME280;55800;54.272;18.558;2024-03-25T08:20:00;99549.38;;;8.36;81.37
68807;BME280;55800;54.272;18.558;2024-03-25T08:22:27;99552.56;;;8.44;81.45
68807;BME280;55800;54.272;18.558;2024-03-25T08:24:56;99554.75;;;8.53;81.62
68807;BME280;55800;54.272;18.558;2024-03-25T08:27:23;99543.72;;;8.60;81.40
68807;BME280;55800;54.272;18.558;2024-03-25T08:29:50;99551.31;;;8.68;81.51
68807;BME280;55800;54.272;18.558;2024-03-25T08:32:17;99553.59;;;8.76;81.42
68807;BME280;55800;54.272;18.558;2024-03-25T08:34:45;99555.84;;;8.83;81.54
68807;BME280;55800;54.272;18.558;2024-03-25T08:37:12;99557.25;;;8.90;81.66
68807;BME280;55800;54.272;18.558;2024-03-25T08:39:39;99553.31;;;8.97;81.72
68807;BME280;55800;54.272;18.558;2024-03-25T08:42:08;99556.47;;;9.05;81.68
68807;BME280;55800;54.272;18.558;2024-03-25T08:44:35;99560.47;;;9.14;81.85
68807;BME280;55800;54.272;18.558;2024-03-25T08:47:02;99556.44;;;9.22;81.66
68807;BME280;55800;54.272;18.558;2024-03-25T08:49:30;99562.13;;;9.32;81.83
68807;BME280;55800;54.272;18.558;2024-03-25T08:51:57;99555.53;;;9.39;81.81
68807;BME280;55800;54.272;18.558;2024-03-25T08:54:24;99549.78;;;9.47;81.94
68807;BME280;55800;54.272;18.558;2024-03-25T08:56:51;99554.63;;;9.56;82.02
68807;BME280;55800;54.272;18.558;2024-03-25T08:59:21;99552.28;;;9.65;82.01
68807;BME280;55800;54.272;18.558;2024-03-25T09:01:48;99554.66;;;9.71;82.15
68807;BME280;55800;54.272;18.558;2024-03-25T09:04:15;99552.41;;;9.79;82.17
68807;BME280;55800;54.272;18.558;2024-03-25T09:06:43;99546.47;;;9.90;82.23
68807;BME280;55800;54.272;18.558;2024-03-25T09:09:10;99550.34;;;10.00;82.33
68807;BME280;55800;54.272;18.558;2024-03-25T09:12:10;99558.56;;;10.12;82.10
68807;BME280;55800;54.272;18.558;2024-03-25T09:14:39;99558.97;;;10.20;81.87
68807;BME280;55800;54.272;18.558;2024-03-25T09:17:06;99551.47;;;10.27;81.68
68807;BME280;55800;54.272;18.558;2024-03-25T09:19:33;99561.63;;;10.36;82.07
68807;BME280;55800;54.272;18.558;2024-03-25T09:22:00;99556.59;;;10.46;81.76
68807;BME280;55800;54.272;18.558;2024-03-25T09:24:28;99557.97;;;10.53;81.58
68807;BME280;55800;54.272;18.558;2024-03-25T09:26:55;99568.13;;;10.62;81.80
68807;BME280;55800;54.272;18.558;2024-03-25T09:29:22;99570.34;;;10.69;81.41
68807;BME280;55800;54.272;18.558;2024-03-25T09:31:51;99572.59;;;10.77;82.10
68807;BME280;55800;54.272;18.558;2024-03-25T09:34:18;99569.44;;;10.84;82.12
68807;BME280;55800;54.272;18.558;2024-03-25T09:36:45;99577.03;;;10.92;81.28
68807;BME280;55800;54.272;18.558;2024-03-25T09:39:13;99578.19;;;11.02;82.34
68807;BME280;55800;54.272;18.558;2024-03-25T09:41:43;99575.91;;;11.10;81.07
68807;BME280;55800;54.272;18.558;2024-03-25T09:44:11;99579.84;;;11.19;81.83
68807;BME280;55800;54.272;18.558;2024-03-25T09:46:39;99587.38;;;11.26;81.80
68807;BME280;55800;54.272;18.558;2024-03-25T09:49:07;99579.94;;;11.31;81.24
68807;BME280;55800;54.272;18.558;2024-03-25T09:51:35;99586.66;;;11.38;81.47
68807;BME280;55800;54.272;18.558;2024-03-25T09:54:02;99588.09;;;11.44;81.69
68807;BME280;55800;54.272;18.558;2024-03-25T09:56:30;99581.47;;;11.49;81.38
68807;BME280;55800;54.272;18.558;2024-03-25T09:58:59;99578.34;;;11.57;81.75
68807;BME280;55800;54.272;18.558;2024-03-25T10:01:26;99582.66;;;11.59;81.00
68807;BME280;55800;54.272;18.558;2024-03-25T10:03:55;99581.41;;;11.65;81.63
68807;BME280;55800;54.272;18.558;2024-03-25T10:06:23;99583.53;;;11.74;81.24
68807;BME280;55800;54.272;18.558;2024-03-25T10:08:54;99584.03;;;11.81;81.81
68807;BME280;55800;54.272;18.558;2024-03-25T10:11:21;99591.75;;;11.85;81.69
68807;BME280;55800;54.272;18.558;2024-03-25T10:13:48;99591.38;;;11.91;81.42
68807;BME280;55800;54.272;18.558;2024-03-25T10:16:15;99596.50;;;11.94;81.28
68807;BME280;55800;54.272;18.558;2024-03-25T10:18:43;99596.16;;;12.00;80.97
68807;BME280;55800;54.272;18.558;2024-03-25T10:21:10;99588.00;;;12.02;81.36
68807;BME280;55800;54.272;18.558;2024-03-25T10:23:40;99592.38;;;12.03;80.50
68807;BME280;55800;54.272;18.558;2024-03-25T10:26:07;99595.00;;;12.04;80.60
68807;BME280;55800;54.272;18.558;2024-03-25T10:28:35;99592.50;;;12.01;78.02
68807;BME280;55800;54.272;18.558;2024-03-25T10:31:05;99595.28;;;12.00;79.09
68807;BME280;55800;54.272;18.558;2024-03-25T10:33:33;99597.19;;;11.98;80.27
68807;BME280;55800;54.272;18.558;2024-03-25T10:36:00;99595.56;;;11.95;79.68
68807;BME280;55800;54.272;18.558;2024-03-25T10:38:30;99597.38;;;11.95;79.46
68807;BME280;55800;54.272;18.558;2024-03-25T10:40:59;99602.09;;;11.91;78.56
68807;BME280;55800;54.272;18.558;2024-03-25T10:43:29;99601.41;;;11.88;79.62
68807;BME280;55800;54.272;18.558;2024-03-25T10:45:58;99610.50;;;11.85;79.98
68807;BME280;55800;54.272;18.558;2024-03-25T10:48:28;99611.66;;;11.81;79.39
68807;BME280;55800;54.272;18.558;2024-03-25T10:50:55;99611.94;;;11.77;77.46
68807;BME280;55800;54.272;18.558;2024-03-25T10:53:23;99617.47;;;11.73;79.47
68807;BME280;55800;54.272;18.558;2024-03-25T10:55:55;99620.63;;;11.66;79.04
68807;BME280;55800;54.272;18.558;2024-03-25T10:58:24;99622.81;;;11.59;78.98
68807;BME280;55800;54.272;18.558;2024-03-25T11:00:53;99627.69;;;11.53;78.65
68807;BME280;55800;54.272;18.558;2024-03-25T11:03:22;99632.34;;;11.49;78.28
68807;BME280;55800;54.272;18.558;2024-03-25T11:05:52;99633.59;;;11.44;79.00
68807;BME280;55800;54.272;18.558;2024-03-25T11:08:20;99633.09;;;11.37;78.47
68807;BME280;55800;54.272;18.558;2024-03-25T11:10:47;99630.69;;;11.33;79.30
68807;BME280;55800;54.272;18.558;2024-03-25T11:13:17;99638.16;;;11.28;79.56
68807;BME280;55800;54.272;18.558;2024-03-25T11:15:48;99632.09;;;11.24;79.82
68807;BME280;55800;54.272;18.558;2024-03-25T11:18:16;99635.25;;;11.17;80.09
68807;BME280;55800;54.272;18.558;2024-03-25T11:20:44;99631.81;;;11.15;80.18
68807;BME280;55800;54.272;18.558;2024-03-25T11:23:13;99634.59;;;11.13;80.25
68807;BME280;55800;54.272;18.558;2024-03-25T11:25:41;99640.97;;;11.11;80.07
68807;BME280;55800;54.272;18.558;2024-03-25T11:28:09;99633.88;;;11.10;80.19
68807;BME280;55800;54.272;18.558;2024-03-25T11:30:37;99639.44;;;11.07;80.38
68807;BME280;55800;54.272;18.558;2024-03-25T11:33:06;99631.78;;;11.01;80.40
68807;BME280;55800;54.272;18.558;2024-03-25T11:35:37;99638.22;;;10.96;80.42
68807;BME280;55800;54.272;18.558;2024-03-25T11:38:05;99637.56;;;10.93;80.47
68807;BME280;55800;54.272;18.558;2024-03-25T11:40:32;99638.69;;;10.89;80.08
68807;BME280;55800;54.272;18.558;2024-03-25T11:43:00;99633.72;;;10.83;80.42
68807;BME280;55800;54.272;18.558;2024-03-25T11:45:27;99633.97;;;10.78;80.31
68807;BME280;55800;54.272;18.558;2024-03-25T11:47:55;99634.16;;;10.75;80.44
68807;BME280;55800;54.272;18.558;2024-03-25T11:50:23;99629.00;;;10.72;80.38
68807;BME280;55800;54.272;18.558;2024-03-25T11:52:51;99632.03;;;10.66;79.68
68807;BME280;55800;54.272;18.558;2024-03-25T11:55:18;99631.41;;;10.61;79.69
68807;BME280;55800;54.272;18.558;2024-03-25T11:57:45;99627.09;;;10.59;79.79
68807;BME280;55800;54.272;18.558;2024-03-25T12:00:13;99637.22;;;10.54;79.71
68807;BME280;55800;54.272;18.558;2024-03-25T12:02:43;99637.47;;;10.49;79.46
68807;BME280;55800;54.272;18.558;2024-03-25T12:05:13;99637.81;;;10.43;79.99
68807;BME280;55800;54.272;18.558;2024-03-25T12:07:42;99639.78;;;10.40;80.09
68807;BME280;55800;54.272;18.558;2024-03-25T12:10:09;99648.00;;;10.37;79.94
68807;BME280;55800;54.272;18.558;2024-03-25T12:12:56;99649.13;;;10.33;79.74
68807;BME280;55800;54.272;18.558;2024-03-25T12:15:23;99652.81;;;10.30;80.05
68807;BME280;55800;54.272;18.558;2024-03-25T12:17:51;99655.56;;;10.29;80.38
68807;BME280;55800;54.272;18.558;2024-03-25T12:20:20;99655.66;;;10.27;80.33
68807;BME280;55800;54.272;18.558;2024-03-25T12:22:49;99657.63;;;10.24;79.58
68807;BME280;55800;54.272;18.558;2024-03-25T12:25:18;99656.94;;;10.20;79.09
68807;BME280;55800;54.272;18.558;2024-03-25T12:27:47;99659.78;;;10.17;79.96
68807;BME280;55800;54.272;18.558;2024-03-25T12:30:14;99664.34;;;10.15;80.19
68807;BME280;55800;54.272;18.558;2024-03-25T12:32:42;99662.63;;;10.14;80.33
68807;BME280;55800;54.272;18.558;2024-03-25T12:35:11;99658.31;;;10.11;80.37
68807;BME280;55800;54.272;18.558;2024-03-25T12:37:39;99663.56;;;10.13;80.55
68807;BME280;55800;54.272;18.558;2024-03-25T12:40:10;99670.56;;;10.15;80.00
68807;BME280;55800;54.272;18.558;2024-03-25T12:42:38;99669.78;;;10.13;80.09
68807;BME280;55800;54.272;18.558;2024-03-25T12:45:06;99664.16;;;10.18;80.65
68807;BME280;55800;54.272;18.558;2024-03-25T12:47:33;99672.78;;;10.23;80.75
68807;BME280;55800;54.272;18.558;2024-03-25T12:50:00;99675.13;;;10.29;80.93
68807;BME280;55800;54.272;18.558;2024-03-25T12:52:28;99673.94;;;10.35;80.42
68807;BME280;55800;54.272;18.558;2024-03-25T12:54:55;99674.53;;;10.40;80.75
68807;BME280;55800;54.272;18.558;2024-03-25T12:57:23;99676.78;;;10.47;80.59
68807;BME280;55800;54.272;18.558;2024-03-25T12:59:51;99678.50;;;10.48;80.68
68807;BME280;55800;54.272;18.558;2024-03-25T13:02:18;99674.88;;;10.49;79.71
68807;BME280;55800;54.272;18.558;2024-03-25T13:04:46;99665.75;;;10.53;80.52